logo
Search for airport 
image banner adimage banner adimage banner ad
image banner ad

LF8623 - Genouille

Located in , France

ICAO - , IATA -

Data provided by Airmate  

General information

Coordinates: N46°6'29" E0°21'29"
Elevation is 572 feet MSL.
 
View others Airports in Poitou-Charentes

Operational data

Special qualification required
Current time UTC:
Current local time:
Weather at : LFBU - Angouleme Brie Champniers ( 43 km )
METAR: LFBU 141630Z AUTO VRB01KT CAVOK 26/14 Q1012 NOSIG
TAF: TAF LFBU 141100Z 1412/1512 30005KT CAVOK BECMG 1506/1508 20012KT TEMPO 1508/1512 24020G30KT 4000 SHRA BKN040TCU FEW050CB
View NOTAMs / SUP AIP / TFR affecting this airport [VIEW]
Communications frequencies: [VIEW]

Runways:

Airport contact information

Address: France

Satellite view of LF8623